X  Sluiten METAR luchtvaart weer gegevens      EHRD Rotterdam The Hague Airport
Temperatuur
11°C Temperatuur
11°C Dauwpunt
100% Vochtigheid



Wind
21 KM/U
13 MPH
6 M/S
11 KTS



290°
WNW
Huidig weer

Hevige Regen Hevige Regen
Luchtdruk 984.92 (hPa) - 29.08 (inHg)
Zicht 3.1 (mijl) - 5 (km)
Vliegveld
Vliegveld code EHRD

Locatie : Rotterdam The Hague Airport
Afstand: 16 (km)

Metar:
EHRD 210425Z AUTO 29011G31KT 250V340 4500 +RA FEW006 SCT008 FEW015CB BKN019 11/11 Q0985 BECMG 31022G34KT

Tijd: 21-10-2021 06:25 CEST